sensor_id;sensor_type;location;lat;lon;timestamp;pressure;altitude;pressure_sealevel;temperature;humidity
79285;BME280;68734;50.452;11.636;2023-05-29T00:00:22;95829.06;;;7.15;73.66
79285;BME280;68734;50.452;11.636;2023-05-29T00:02:49;95820.53;;;7.07;73.65
79285;BME280;68734;50.452;11.636;2023-05-29T00:05:18;95822.50;;;6.99;74.14
79285;BME280;68734;50.452;11.636;2023-05-29T00:07:43;95820.88;;;6.98;74.55
79285;BME280;68734;50.452;11.636;2023-05-29T00:10:11;95827.28;;;6.97;74.50
79285;BME280;68734;50.452;11.636;2023-05-29T00:12:39;95831.16;;;7.02;73.89
79285;BME280;68734;50.452;11.636;2023-05-29T00:15:08;95818.31;;;7.04;74.01
79285;BME280;68734;50.452;11.636;2023-05-29T00:17:35;95827.88;;;6.99;74.17
79285;BME280;68734;50.452;11.636;2023-05-29T00:20:01;95825.06;;;6.94;73.81
79285;BME280;68734;50.452;11.636;2023-05-29T00:22:31;95831.38;;;6.88;74.29
79285;BME280;68734;50.452;11.636;2023-05-29T00:24:56;95824.69;;;6.79;74.34
79285;BME280;68734;50.452;11.636;2023-05-29T00:27:21;95826.31;;;6.80;74.23
79285;BME280;68734;50.452;11.636;2023-05-29T00:29:47;95818.72;;;6.77;74.45
79285;BME280;68734;50.452;11.636;2023-05-29T00:32:12;95813.25;;;6.72;74.74
79285;BME280;68734;50.452;11.636;2023-05-29T00:34:38;95822.47;;;6.76;74.67
79285;BME280;68734;50.452;11.636;2023-05-29T00:37:03;95821.28;;;6.72;74.47
79285;BME280;68734;50.452;11.636;2023-05-29T00:39:29;95812.66;;;6.70;74.54
79285;BME280;68734;50.452;11.636;2023-05-29T00:41:55;95813.09;;;6.67;74.85
79285;BME280;68734;50.452;11.636;2023-05-29T00:44:23;95801.75;;;6.53;74.76
79285;BME280;68734;50.452;11.636;2023-05-29T00:46:51;95817.16;;;6.57;75.14
79285;BME280;68734;50.452;11.636;2023-05-29T00:49:19;95815.38;;;6.51;75.11
79285;BME280;68734;50.452;11.636;2023-05-29T00:51:45;95814.88;;;6.43;75.25
79285;BME280;68734;50.452;11.636;2023-05-29T00:54:19;95813.38;;;6.47;75.46
79285;BME280;68734;50.452;11.636;2023-05-29T00:56:46;95809.75;;;6.41;75.54
79285;BME280;68734;50.452;11.636;2023-05-29T00:59:11;95810.22;;;6.38;76.01
79285;BME280;68734;50.452;11.636;2023-05-29T01:01:38;95805.38;;;6.28;76.22
79285;BME280;68734;50.452;11.636;2023-05-29T01:04:05;95817.53;;;6.31;75.48
79285;BME280;68734;50.452;11.636;2023-05-29T01:06:36;95801.38;;;6.19;76.04
79285;BME280;68734;50.452;11.636;2023-05-29T01:09:02;95817.63;;;6.24;75.77
79285;BME280;68734;50.452;11.636;2023-05-29T01:11:39;95812.94;;;6.19;76.05
79285;BME280;68734;50.452;11.636;2023-05-29T01:14:08;95823.66;;;6.19;76.58
79285;BME280;68734;50.452;11.636;2023-05-29T01:27:30;95811.44;;;6.05;76.21
79285;BME280;68734;50.452;11.636;2023-05-29T01:29:58;95818.91;;;6.03;76.30
79285;BME280;68734;50.452;11.636;2023-05-29T01:32:25;95814.38;;;6.04;76.03
79285;BME280;68734;50.452;11.636;2023-05-29T01:34:53;95822.78;;;6.07;76.09
79285;BME280;68734;50.452;11.636;2023-05-29T01:37:18;95816.81;;;6.05;76.36
79285;BME280;68734;50.452;11.636;2023-05-29T01:39:44;95821.59;;;6.03;76.26
79285;BME280;68734;50.452;11.636;2023-05-29T01:42:12;95815.50;;;5.96;76.52
79285;BME280;68734;50.452;11.636;2023-05-29T01:44:39;95818.59;;;5.93;76.52
79285;BME280;68734;50.452;11.636;2023-05-29T01:47:05;95821.56;;;5.85;77.02
79285;BME280;68734;50.452;11.636;2023-05-29T01:49:34;95821.66;;;5.78;76.96
79285;BME280;68734;50.452;11.636;2023-05-29T01:52:01;95827.81;;;5.78;77.73
79285;BME280;68734;50.452;11.636;2023-05-29T01:54:27;95819.19;;;5.76;77.83
79285;BME280;68734;50.452;11.636;2023-05-29T01:56:52;95811.03;;;5.71;77.74
79285;BME280;68734;50.452;11.636;2023-05-29T01:59:19;95818.38;;;5.76;77.74
79285;BME280;68734;50.452;11.636;2023-05-29T02:01:47;95821.66;;;5.78;77.23
79285;BME280;68734;50.452;11.636;2023-05-29T02:04:13;95813.84;;;5.76;77.60
79285;BME280;68734;50.452;11.636;2023-05-29T02:06:38;95807.75;;;5.69;77.67
79285;BME280;68734;50.452;11.636;2023-05-29T02:09:04;95808.19;;;5.66;77.69
79285;BME280;68734;50.452;11.636;2023-05-29T02:11:29;95805.78;;;5.58;77.92
79285;BME280;68734;50.452;11.636;2023-05-29T02:13:54;95809.38;;;5.52;78.49
79285;BME280;68734;50.452;11.636;2023-05-29T02:16:20;95817.63;;;5.50;78.11
79285;BME280;68734;50.452;11.636;2023-05-29T02:18:46;95810.03;;;5.47;78.08
79285;BME280;68734;50.452;11.636;2023-05-29T02:21:12;95810.84;;;5.48;77.82
79285;BME280;68734;50.452;11.636;2023-05-29T02:23:37;95811.44;;;5.50;78.15
79285;BME280;68734;50.452;11.636;2023-05-29T02:26:02;95800.72;;;5.50;78.36
79285;BME280;68734;50.452;11.636;2023-05-29T02:28:28;95797.25;;;5.49;78.38
79285;BME280;68734;50.452;11.636;2023-05-29T02:30:55;95803.63;;;5.48;78.62
79285;BME280;68734;50.452;11.636;2023-05-29T02:33:21;95799.38;;;5.40;78.06
79285;BME280;68734;50.452;11.636;2023-05-29T02:35:46;95805.63;;;5.34;78.47
79285;BME280;68734;50.452;11.636;2023-05-29T02:38:12;95798.84;;;5.32;78.66
79285;BME280;68734;50.452;11.636;2023-05-29T02:40:37;95802.34;;;5.32;78.43
79285;BME280;68734;50.452;11.636;2023-05-29T02:43:05;95809.78;;;5.30;78.71
79285;BME280;68734;50.452;11.636;2023-05-29T02:45:33;95805.69;;;5.28;78.87
79285;BME280;68734;50.452;11.636;2023-05-29T02:47:59;95810.25;;;5.27;78.91
79285;BME280;68734;50.452;11.636;2023-05-29T02:50:24;95811.25;;;5.26;79.28
79285;BME280;68734;50.452;11.636;2023-05-29T02:52:50;95805.72;;;5.21;79.44
79285;BME280;68734;50.452;11.636;2023-05-29T02:55:15;95804.13;;;5.20;78.87
79285;BME280;68734;50.452;11.636;2023-05-29T02:57:41;95797.28;;;5.24;79.22
79285;BME280;68734;50.452;11.636;2023-05-29T03:00:07;95809.00;;;5.23;79.06
79285;BME280;68734;50.452;11.636;2023-05-29T03:02:33;95807.81;;;5.19;79.09
79285;BME280;68734;50.452;11.636;2023-05-29T03:05:00;95806.41;;;5.16;78.66
79285;BME280;68734;50.452;11.636;2023-05-29T03:07:28;95812.63;;;5.10;79.99
79285;BME280;68734;50.452;11.636;2023-05-29T03:09:54;95826.84;;;5.11;80.80
79285;BME280;68734;50.452;11.636;2023-05-29T03:12:23;95822.31;;;5.11;81.14
79285;BME280;68734;50.452;11.636;2023-05-29T03:14:48;95813.16;;;5.19;80.51
79285;BME280;68734;50.452;11.636;2023-05-29T03:17:14;95814.38;;;5.23;79.87
79285;BME280;68734;50.452;11.636;2023-05-29T03:19:45;95817.66;;;5.25;79.43
79285;BME280;68734;50.452;11.636;2023-05-29T03:22:10;95815.59;;;5.27;78.79
79285;BME280;68734;50.452;11.636;2023-05-29T03:24:38;95824.22;;;5.29;79.29
79285;BME280;68734;50.452;11.636;2023-05-29T03:27:03;95829.41;;;5.24;79.28
79285;BME280;68734;50.452;11.636;2023-05-29T03:29:31;95821.97;;;5.26;78.89
79285;BME280;68734;50.452;11.636;2023-05-29T03:31:59;95823.06;;;5.44;78.28
79285;BME280;68734;50.452;11.636;2023-05-29T03:34:25;95822.31;;;5.92;76.61
79285;BME280;68734;50.452;11.636;2023-05-29T03:36:50;95818.84;;;6.40;74.51
79285;BME280;68734;50.452;11.636;2023-05-29T03:39:15;95819.44;;;6.84;72.84
79285;BME280;68734;50.452;11.636;2023-05-29T03:41:41;95813.44;;;7.24;70.49
79285;BME280;68734;50.452;11.636;2023-05-29T03:44:06;95814.25;;;7.60;69.50
79285;BME280;68734;50.452;11.636;2023-05-29T03:46:32;95825.19;;;7.94;68.18
79285;BME280;68734;50.452;11.636;2023-05-29T03:48:57;95820.38;;;8.36;66.36
79285;BME280;68734;50.452;11.636;2023-05-29T03:51:23;95809.00;;;8.75;64.65
79285;BME280;68734;50.452;11.636;2023-05-29T03:53:48;95816.13;;;9.15;63.36
79285;BME280;68734;50.452;11.636;2023-05-29T03:56:13;95831.53;;;9.70;61.94
79285;BME280;68734;50.452;11.636;2023-05-29T03:58:39;95826.56;;;10.01;60.62
79285;BME280;68734;50.452;11.636;2023-05-29T04:01:04;95830.41;;;10.49;59.08
79285;BME280;68734;50.452;11.636;2023-05-29T04:03:31;95837.41;;;11.00;57.00
79285;BME280;68734;50.452;11.636;2023-05-29T04:05:56;95830.84;;;11.55;56.06
79285;BME280;68734;50.452;11.636;2023-05-29T04:08:22;95834.91;;;11.95;54.44
79285;BME280;68734;50.452;11.636;2023-05-29T04:10:47;95840.00;;;12.39;53.50
79285;BME280;68734;50.452;11.636;2023-05-29T04:13:12;95845.50;;;12.70;52.36
79285;BME280;68734;50.452;11.636;2023-05-29T04:15:38;95846.94;;;12.98;52.20
79285;BME280;68734;50.452;11.636;2023-05-29T04:18:03;95850.72;;;13.02;51.79
79285;BME280;68734;50.452;11.636;2023-05-29T04:20:29;95851.59;;;13.23;51.64
79285;BME280;68734;50.452;11.636;2023-05-29T04:22:54;95853.47;;;13.23;52.23
79285;BME280;68734;50.452;11.636;2023-05-29T04:25:22;95852.16;;;13.51;51.38
79285;BME280;68734;50.452;11.636;2023-05-29T04:27:48;95855.94;;;13.86;50.73
79285;BME280;68734;50.452;11.636;2023-05-29T04:30:18;95856.47;;;13.83;51.27
79285;BME280;68734;50.452;11.636;2023-05-29T04:32:44;95857.41;;;14.48;49.82
79285;BME280;68734;50.452;11.636;2023-05-29T04:35:10;95862.72;;;14.84;48.37
79285;BME280;68734;50.452;11.636;2023-05-29T04:37:35;95873.09;;;14.72;49.23
79285;BME280;68734;50.452;11.636;2023-05-29T04:40:10;95874.75;;;15.18;48.15
79285;BME280;68734;50.452;11.636;2023-05-29T04:42:37;95873.75;;;15.82;46.23
79285;BME280;68734;50.452;11.636;2023-05-29T04:45:06;95872.84;;;16.45;45.28
79285;BME280;68734;50.452;11.636;2023-05-29T04:47:31;95876.38;;;16.70;43.56
79285;BME280;68734;50.452;11.636;2023-05-29T04:50:01;95879.97;;;16.89;43.88
79285;BME280;68734;50.452;11.636;2023-05-29T04:52:26;95871.09;;;17.41;42.35
79285;BME280;68734;50.452;11.636;2023-05-29T04:54:55;95885.66;;;17.69;41.95
79285;BME280;68734;50.452;11.636;2023-05-29T04:57:22;95890.72;;;17.75;41.54
79285;BME280;68734;50.452;11.636;2023-05-29T04:59:47;95878.72;;;18.09;40.95
79285;BME280;68734;50.452;11.636;2023-05-29T05:02:12;95877.94;;;18.23;41.14
79285;BME280;68734;50.452;11.636;2023-05-29T05:04:40;95886.44;;;18.21;40.32
79285;BME280;68734;50.452;11.636;2023-05-29T05:07:05;95888.38;;;17.88;41.15
79285;BME280;68734;50.452;11.636;2023-05-29T05:09:33;95883.53;;;17.47;42.16
79285;BME280;68734;50.452;11.636;2023-05-29T05:11:59;95880.09;;;17.93;42.21
79285;BME280;68734;50.452;11.636;2023-05-29T05:14:24;95889.88;;;17.61;41.86
79285;BME280;68734;50.452;11.636;2023-05-29T05:16:50;95891.06;;;17.55;43.15
79285;BME280;68734;50.452;11.636;2023-05-29T05:19:16;95886.13;;;16.76;44.93
79285;BME280;68734;50.452;11.636;2023-05-29T05:21:44;95895.88;;;16.58;44.63
79285;BME280;68734;50.452;11.636;2023-05-29T05:24:12;95902.72;;;16.55;44.70
79285;BME280;68734;50.452;11.636;2023-05-29T05:26:40;95909.22;;;16.84;44.33
79285;BME280;68734;50.452;11.636;2023-05-29T05:29:09;95907.94;;;16.76;44.57
79285;BME280;68734;50.452;11.636;2023-05-29T05:31:35;95901.91;;;17.41;43.78
79285;BME280;68734;50.452;11.636;2023-05-29T05:34:00;95913.38;;;17.24;43.08
79285;BME280;68734;50.452;11.636;2023-05-29T05:36:26;95907.00;;;16.62;45.40
79285;BME280;68734;50.452;11.636;2023-05-29T05:38:51;95897.63;;;16.49;44.29
79285;BME280;68734;50.452;11.636;2023-05-29T05:41:19;95904.63;;;16.31;44.72
79285;BME280;68734;50.452;11.636;2023-05-29T05:43:44;95904.00;;;16.87;43.67
79285;BME280;68734;50.452;11.636;2023-05-29T05:46:10;95898.78;;;16.91;44.98
79285;BME280;68734;50.452;11.636;2023-05-29T05:48:35;95899.81;;;16.71;44.02
79285;BME280;68734;50.452;11.636;2023-05-29T05:51:00;95903.06;;;16.73;44.67
79285;BME280;68734;50.452;11.636;2023-05-29T05:53:26;95900.06;;;16.74;44.85
79285;BME280;68734;50.452;11.636;2023-05-29T05:55:53;95905.78;;;16.25;45.02
79285;BME280;68734;50.452;11.636;2023-05-29T05:58:19;95903.97;;;16.15;46.25
79285;BME280;68734;50.452;11.636;2023-05-29T06:00:45;95914.19;;;16.28;44.90
79285;BME280;68734;50.452;11.636;2023-05-29T06:03:10;95912.41;;;16.67;44.15
79285;BME280;68734;50.452;11.636;2023-05-29T06:05:37;95908.91;;;17.09;44.37
79285;BME280;68734;50.452;11.636;2023-05-29T06:08:04;95911.75;;;16.27;44.46
79285;BME280;68734;50.452;11.636;2023-05-29T06:10:30;95917.59;;;16.92;43.68
79285;BME280;68734;50.452;11.636;2023-05-29T06:12:56;95922.66;;;16.27;44.53
79285;BME280;68734;50.452;11.636;2023-05-29T06:15:23;95919.91;;;16.56;45.38
79285;BME280;68734;50.452;11.636;2023-05-29T06:17:48;95924.66;;;16.16;45.61
79285;BME280;68734;50.452;11.636;2023-05-29T06:20:16;95920.59;;;16.67;45.49
79285;BME280;68734;50.452;11.636;2023-05-29T06:22:44;95924.09;;;16.97;43.75
79285;BME280;68734;50.452;11.636;2023-05-29T06:25:15;95929.41;;;17.07;44.45
79285;BME280;68734;50.452;11.636;2023-05-29T06:27:41;95925.25;;;16.66;44.75
79285;BME280;68734;50.452;11.636;2023-05-29T06:30:07;95940.31;;;16.88;44.42
79285;BME280;68734;50.452;11.636;2023-05-29T06:32:32;95942.88;;;16.21;46.51
79285;BME280;68734;50.452;11.636;2023-05-29T06:34:58;95929.16;;;16.79;45.10
79285;BME280;68734;50.452;11.636;2023-05-29T06:37:23;95932.47;;;17.43;43.67
79285;BME280;68734;50.452;11.636;2023-05-29T06:39:49;95939.03;;;17.99;43.15
79285;BME280;68734;50.452;11.636;2023-05-29T06:42:14;95945.97;;;17.91;42.57
79285;BME280;68734;50.452;11.636;2023-05-29T06:44:43;95944.44;;;17.85;43.24
79285;BME280;68734;50.452;11.636;2023-05-29T06:47:08;95941.25;;;16.97;45.30
79285;BME280;68734;50.452;11.636;2023-05-29T06:49:33;95959.13;;;16.02;47.15
79285;BME280;68734;50.452;11.636;2023-05-29T06:51:59;95945.44;;;15.72;49.86
79285;BME280;68734;50.452;11.636;2023-05-29T06:54:25;95952.53;;;15.68;49.71
79285;BME280;68734;50.452;11.636;2023-05-29T06:56:50;95945.72;;;15.21;50.97
79285;BME280;68734;50.452;11.636;2023-05-29T06:59:16;95954.03;;;14.95;52.48
79285;BME280;68734;50.452;11.636;2023-05-29T07:01:41;95946.94;;;14.94;51.92
79285;BME280;68734;50.452;11.636;2023-05-29T07:04:07;95955.78;;;14.35;52.84
79285;BME280;68734;50.452;11.636;2023-05-29T07:06:32;95951.44;;;14.39;54.01
79285;BME280;68734;50.452;11.636;2023-05-29T07:08:59;95952.28;;;14.24;54.62
79285;BME280;68734;50.452;11.636;2023-05-29T07:11:24;95943.91;;;14.05;54.48
79285;BME280;68734;50.452;11.636;2023-05-29T07:13:52;95949.31;;;14.26;55.50
79285;BME280;68734;50.452;11.636;2023-05-29T07:16:20;95963.16;;;14.19;54.78
79285;BME280;68734;50.452;11.636;2023-05-29T07:18:46;95953.09;;;14.14;56.18
79285;BME280;68734;50.452;11.636;2023-05-29T07:21:11;95962.91;;;14.15;53.88
79285;BME280;68734;50.452;11.636;2023-05-29T07:23:39;95952.31;;;13.99;53.38
79285;BME280;68734;50.452;11.636;2023-05-29T07:26:05;95951.19;;;14.35;54.26
79285;BME280;68734;50.452;11.636;2023-05-29T07:28:31;95954.13;;;14.65;52.61
79285;BME280;68734;50.452;11.636;2023-05-29T07:30:56;95958.19;;;14.78;52.23
79285;BME280;68734;50.452;11.636;2023-05-29T07:33:21;95961.16;;;14.76;52.03
79285;BME280;68734;50.452;11.636;2023-05-29T07:35:47;95954.13;;;14.54;53.59
79285;BME280;68734;50.452;11.636;2023-05-29T07:38:13;95963.91;;;14.55;53.44
79285;BME280;68734;50.452;11.636;2023-05-29T07:40:38;95958.75;;;14.64;54.08
79285;BME280;68734;50.452;11.636;2023-05-29T07:43:04;95959.50;;;14.85;52.48
79285;BME280;68734;50.452;11.636;2023-05-29T07:45:29;95961.41;;;14.90;53.39
79285;BME280;68734;50.452;11.636;2023-05-29T07:47:54;95953.81;;;14.82;53.46
79285;BME280;68734;50.452;11.636;2023-05-29T07:50:20;95968.94;;;15.08;52.21
79285;BME280;68734;50.452;11.636;2023-05-29T07:52:48;95963.16;;;15.20;51.81
79285;BME280;68734;50.452;11.636;2023-05-29T07:55:13;95967.53;;;15.16;50.28
79285;BME280;68734;50.452;11.636;2023-05-29T07:57:39;95966.53;;;14.96;50.88
79285;BME280;68734;50.452;11.636;2023-05-29T08:00:05;95970.53;;;15.09;51.62
79285;BME280;68734;50.452;11.636;2023-05-29T08:02:31;95977.34;;;15.12;50.38
79285;BME280;68734;50.452;11.636;2023-05-29T08:04:56;95983.88;;;15.11;52.17
79285;BME280;68734;50.452;11.636;2023-05-29T08:07:21;95982.22;;;15.20;52.17
79285;BME280;68734;50.452;11.636;2023-05-29T08:09:49;95990.19;;;15.56;50.59
79285;BME280;68734;50.452;11.636;2023-05-29T08:12:14;95967.09;;;15.48;49.70
79285;BME280;68734;50.452;11.636;2023-05-29T08:14:40;95976.59;;;15.51;49.86
79285;BME280;68734;50.452;11.636;2023-05-29T08:17:05;95968.03;;;15.73;50.39
79285;BME280;68734;50.452;11.636;2023-05-29T08:19:31;95977.97;;;15.93;50.33
79285;BME280;68734;50.452;11.636;2023-05-29T08:21:56;95965.69;;;15.95;47.60
79285;BME280;68734;50.452;11.636;2023-05-29T08:24:22;95972.78;;;15.52;48.92
79285;BME280;68734;50.452;11.636;2023-05-29T08:26:50;95979.75;;;15.68;49.04
79285;BME280;68734;50.452;11.636;2023-05-29T08:29:15;95969.41;;;15.75;48.72
79285;BME280;68734;50.452;11.636;2023-05-29T08:31:40;95983.56;;;15.72;49.86
79285;BME280;68734;50.452;11.636;2023-05-29T08:34:06;95970.50;;;16.09;46.12
79285;BME280;68734;50.452;11.636;2023-05-29T08:36:32;95977.28;;;16.11;47.77
79285;BME280;68734;50.452;11.636;2023-05-29T08:38:57;95975.41;;;16.07;49.03
79285;BME280;68734;50.452;11.636;2023-05-29T08:44:03;95982.78;;;16.06;47.76
79285;BME280;68734;50.452;11.636;2023-05-29T08:46:32;95980.47;;;16.24;47.97
79285;BME280;68734;50.452;11.636;2023-05-29T08:48:59;95980.59;;;16.03;47.99
79285;BME280;68734;50.452;11.636;2023-05-29T08:51:31;95978.13;;;16.07;47.44
79285;BME280;68734;50.452;11.636;2023-05-29T08:53:57;95986.03;;;16.08;47.92
79285;BME280;68734;50.452;11.636;2023-05-29T08:56:23;95983.03;;;16.10;46.57
79285;BME280;68734;50.452;11.636;2023-05-29T08:58:51;95980.41;;;16.29;46.51
79285;BME280;68734;50.452;11.636;2023-05-29T09:01:21;95979.91;;;16.51;47.28
79285;BME280;68734;50.452;11.636;2023-05-29T09:03:47;95970.16;;;16.74;45.71
79285;BME280;68734;50.452;11.636;2023-05-29T09:06:14;95975.25;;;16.81;45.20
79285;BME280;68734;50.452;11.636;2023-05-29T09:08:40;95978.91;;;16.71;43.89
79285;BME280;68734;50.452;11.636;2023-05-29T09:11:05;95974.31;;;16.37;45.52
79285;BME280;68734;50.452;11.636;2023-05-29T09:13:31;95973.84;;;16.59;45.30
79285;BME280;68734;50.452;11.636;2023-05-29T09:16:00;95982.25;;;16.63;44.33
79285;BME280;68734;50.452;11.636;2023-05-29T09:18:28;95977.97;;;16.86;44.50
79285;BME280;68734;50.452;11.636;2023-05-29T09:20:56;95977.88;;;17.15;43.72
79285;BME280;68734;50.452;11.636;2023-05-29T09:23:22;95983.41;;;17.10;43.80
79285;BME280;68734;50.452;11.636;2023-05-29T09:25:53;95972.88;;;17.22;42.96
79285;BME280;68734;50.452;11.636;2023-05-29T09:28:22;95980.69;;;16.86;43.22
79285;BME280;68734;50.452;11.636;2023-05-29T09:30:49;95986.25;;;17.00;43.21
79285;BME280;68734;50.452;11.636;2023-05-29T09:33:15;95984.47;;;16.90;42.72
79285;BME280;68734;50.452;11.636;2023-05-29T09:38:07;95986.06;;;17.15;42.38
79285;BME280;68734;50.452;11.636;2023-05-29T09:40:37;95987.03;;;16.76;42.95
79285;BME280;68734;50.452;11.636;2023-05-29T09:45:45;95985.63;;;17.08;44.25
79285;BME280;68734;50.452;11.636;2023-05-29T09:48:16;95994.97;;;17.45;44.13
79285;BME280;68734;50.452;11.636;2023-05-29T09:50:42;95986.00;;;17.20;44.33
79285;BME280;68734;50.452;11.636;2023-05-29T09:55:46;95975.09;;;17.39;40.38
79285;BME280;68734;50.452;11.636;2023-05-29T09:58:14;95984.19;;;17.34;41.25
79285;BME280;68734;50.452;11.636;2023-05-29T10:00:41;95988.34;;;17.51;41.72
79285;BME280;68734;50.452;11.636;2023-05-29T10:03:09;95983.69;;;17.51;41.21
79285;BME280;68734;50.452;11.636;2023-05-29T10:05:34;95976.22;;;17.57;41.88
79285;BME280;68734;50.452;11.636;2023-05-29T10:08:01;95960.59;;;17.63;38.96
79285;BME280;68734;50.452;11.636;2023-05-29T10:10:29;95979.31;;;17.69;39.89
79285;BME280;68734;50.452;11.636;2023-05-29T10:12:55;95974.22;;;17.44;42.18
79285;BME280;68734;50.452;11.636;2023-05-29T10:15:25;95969.22;;;17.51;42.95
79285;BME280;68734;50.452;11.636;2023-05-29T10:20:25;95982.72;;;17.61;38.89
79285;BME280;68734;50.452;11.636;2023-05-29T10:22:56;95992.66;;;17.95;38.09
79285;BME280;68734;50.452;11.636;2023-05-29T10:25:22;95984.06;;;17.83;38.58
79285;BME280;68734;50.452;11.636;2023-05-29T10:27:52;95979.69;;;17.82;39.29
79285;BME280;68734;50.452;11.636;2023-05-29T10:30:39;95985.53;;;17.94;39.29
79285;BME280;68734;50.452;11.636;2023-05-29T10:36:13;95984.50;;;17.52;38.86
79285;BME280;68734;50.452;11.636;2023-05-29T10:38:44;95987.47;;;17.74;39.11
79285;BME280;68734;50.452;11.636;2023-05-29T10:43:57;95992.72;;;17.52;39.55
79285;BME280;68734;50.452;11.636;2023-05-29T10:49:21;95988.28;;;17.56;38.78
79285;BME280;68734;50.452;11.636;2023-05-29T10:51:47;95972.41;;;17.96;38.77
79285;BME280;68734;50.452;11.636;2023-05-29T10:54:14;95983.13;;;17.92;39.51
79285;BME280;68734;50.452;11.636;2023-05-29T10:56:40;95993.00;;;18.07;39.77
79285;BME280;68734;50.452;11.636;2023-05-29T10:59:11;96001.94;;;17.94;39.17
79285;BME280;68734;50.452;11.636;2023-05-29T11:01:39;95980.69;;;17.91;38.74
79285;BME280;68734;50.452;11.636;2023-05-29T11:06:46;95993.94;;;18.17;38.42
79285;BME280;68734;50.452;11.636;2023-05-29T11:09:45;95970.09;;;18.22;38.45
79285;BME280;68734;50.452;11.636;2023-05-29T11:12:25;95976.19;;;18.00;37.90
79285;BME280;68734;50.452;11.636;2023-05-29T11:15:06;95962.22;;;17.83;38.17
79285;BME280;68734;50.452;11.636;2023-05-29T11:20:08;95968.06;;;18.28;38.92
79285;BME280;68734;50.452;11.636;2023-05-29T11:25:13;95986.84;;;18.16;39.38
79285;BME280;68734;50.452;11.636;2023-05-29T11:27:39;95972.84;;;18.03;38.81
79285;BME280;68734;50.452;11.636;2023-05-29T11:30:05;95967.13;;;18.19;38.24
79285;BME280;68734;50.452;11.636;2023-05-29T11:32:34;95976.94;;;18.20;38.55
79285;BME280;68734;50.452;11.636;2023-05-29T11:35:09;95969.66;;;18.15;37.85
79285;BME280;68734;50.452;11.636;2023-05-29T11:37:37;95973.28;;;18.10;37.94
79285;BME280;68734;50.452;11.636;2023-05-29T11:40:06;95972.50;;;18.24;37.91
79285;BME280;68734;50.452;11.636;2023-05-29T11:42:41;95966.25;;;18.37;37.63
79285;BME280;68734;50.452;11.636;2023-05-29T11:45:16;95967.41;;;18.50;38.38
79285;BME280;68734;50.452;11.636;2023-05-29T11:47:55;95955.75;;;18.44;38.16
79285;BME280;68734;50.452;11.636;2023-05-29T11:50:21;95966.44;;;18.27;37.82
79285;BME280;68734;50.452;11.636;2023-05-29T11:52:47;95966.84;;;18.34;36.81
79285;BME280;68734;50.452;11.636;2023-05-29T11:55:13;95960.38;;;18.30;37.17
79285;BME280;68734;50.452;11.636;2023-05-29T11:57:40;95958.34;;;18.36;36.83
79285;BME280;68734;50.452;11.636;2023-05-29T12:00:14;95952.66;;;18.32;38.05
79285;BME280;68734;50.452;11.636;2023-05-29T12:02:43;95956.44;;;18.36;37.52
79285;BME280;68734;50.452;11.636;2023-05-29T12:05:09;95950.09;;;18.54;36.54
79285;BME280;68734;50.452;11.636;2023-05-29T12:07:36;95955.03;;;18.39;37.19
79285;BME280;68734;50.452;11.636;2023-05-29T12:10:14;95948.06;;;18.74;38.24
79285;BME280;68734;50.452;11.636;2023-05-29T12:12:40;95950.31;;;18.72;36.89
79285;BME280;68734;50.452;11.636;2023-05-29T12:15:08;95958.41;;;18.63;36.67
79285;BME280;68734;50.452;11.636;2023-05-29T12:17:35;95949.09;;;18.64;37.02
79285;BME280;68734;50.452;11.636;2023-05-29T12:20:02;95941.81;;;18.73;36.94
79285;BME280;68734;50.452;11.636;2023-05-29T12:22:36;95942.59;;;18.74;37.14
79285;BME280;68734;50.452;11.636;2023-05-29T12:27:32;95940.63;;;18.93;35.92
79285;BME280;68734;50.452;11.636;2023-05-29T12:30:03;95941.34;;;18.85;36.07
79285;BME280;68734;50.452;11.636;2023-05-29T12:32:36;95936.50;;;18.49;36.83
79285;BME280;68734;50.452;11.636;2023-05-29T12:37:35;95956.53;;;18.31;36.84
79285;BME280;68734;50.452;11.636;2023-05-29T12:40:14;95956.97;;;18.38;38.29
79285;BME280;68734;50.452;11.636;2023-05-29T12:42:41;95947.06;;;18.42;38.58
79285;BME280;68734;50.452;11.636;2023-05-29T12:45:07;95955.31;;;18.37;37.26
79285;BME280;68734;50.452;11.636;2023-05-29T12:47:34;95939.06;;;18.60;36.47
79285;BME280;68734;50.452;11.636;2023-05-29T12:50:04;95945.66;;;18.59;37.24
79285;BME280;68734;50.452;11.636;2023-05-29T12:52:32;95958.81;;;18.57;36.80
79285;BME280;68734;50.452;11.636;2023-05-29T12:54:57;95960.34;;;18.63;37.38
79285;BME280;68734;50.452;11.636;2023-05-29T12:57:25;95946.81;;;18.85;38.29
79285;BME280;68734;50.452;11.636;2023-05-29T12:59:52;95944.25;;;18.75;37.88
79285;BME280;68734;50.452;11.636;2023-05-29T13:02:18;95946.47;;;18.73;36.91
79285;BME280;68734;50.452;11.636;2023-05-29T13:04:43;95954.38;;;18.61;37.69
79285;BME280;68734;50.452;11.636;2023-05-29T13:07:11;95955.94;;;18.95;36.75
79285;BME280;68734;50.452;11.636;2023-05-29T13:09:37;95956.53;;;18.91;37.01
79285;BME280;68734;50.452;11.636;2023-05-29T13:12:02;95938.53;;;18.58;36.24
79285;BME280;68734;50.452;11.636;2023-05-29T13:14:30;95950.28;;;18.58;36.84
79285;BME280;68734;50.452;11.636;2023-05-29T13:16:56;95953.16;;;18.67;35.21
79285;BME280;68734;50.452;11.636;2023-05-29T13:19:23;95957.19;;;18.69;36.79
79285;BME280;68734;50.452;11.636;2023-05-29T13:21:49;95940.47;;;18.57;35.98
79285;BME280;68734;50.452;11.636;2023-05-29T13:24:15;95954.38;;;18.74;36.94
79285;BME280;68734;50.452;11.636;2023-05-29T13:26:40;95942.81;;;18.64;36.59
79285;BME280;68734;50.452;11.636;2023-05-29T13:29:06;95942.13;;;19.00;36.51
79285;BME280;68734;50.452;11.636;2023-05-29T13:31:33;95945.44;;;19.24;35.81
79285;BME280;68734;50.452;11.636;2023-05-29T13:34:02;95946.69;;;19.18;36.07
79285;BME280;68734;50.452;11.636;2023-05-29T13:36:27;95940.56;;;19.49;35.59